createdAt,value
2018-05-08T00:02:12.025Z,16.10
2018-05-08T00:04:45.914Z,16.00
2018-05-08T00:07:19.647Z,15.90
2018-05-08T00:09:53.480Z,15.80
2018-05-08T00:12:27.203Z,15.70
2018-05-08T00:15:00.974Z,15.70
2018-05-08T00:17:34.758Z,15.70
2018-05-08T00:20:08.556Z,15.70
2018-05-08T00:22:43.163Z,15.60
2018-05-08T00:25:16.785Z,15.60
2018-05-08T00:27:50.600Z,15.60
2018-05-08T00:30:24.439Z,15.60
2018-05-08T00:32:59.021Z,15.60
2018-05-08T00:35:32.714Z,15.50
2018-05-08T00:38:07.346Z,15.40
2018-05-08T00:40:41.154Z,15.50
2018-05-08T00:43:15.786Z,15.40
2018-05-08T00:45:49.600Z,15.40
2018-05-08T00:48:24.204Z,15.20
2018-05-08T00:50:58.811Z,15.20
2018-05-08T00:53:32.526Z,15.20
2018-05-08T00:56:06.356Z,15.20
2018-05-08T00:58:40.950Z,15.20
2018-05-08T01:01:14.792Z,15.20
2018-05-08T01:03:48.599Z,15.20
2018-05-08T01:06:22.365Z,15.20
2018-05-08T01:08:56.213Z,15.10
2018-05-08T01:11:30.027Z,15.00
2018-05-08T01:14:04.723Z,14.90
2018-05-08T01:16:38.534Z,14.90
2018-05-08T01:19:12.296Z,14.90
2018-05-08T01:21:45.916Z,14.90
2018-05-08T01:24:19.721Z,14.90
2018-05-08T01:26:53.466Z,14.80
2018-05-08T01:29:27.298Z,14.80
2018-05-08T01:32:01.052Z,14.80
2018-05-08T01:34:34.684Z,14.70
2018-05-08T01:37:08.446Z,14.60
2018-05-08T01:39:42.158Z,14.50
2018-05-08T01:42:15.997Z,14.50
2018-05-08T01:44:49.712Z,14.50
2018-05-08T01:47:23.477Z,14.50
2018-05-08T01:49:57.252Z,14.50
2018-05-08T01:52:30.997Z,14.50
2018-05-08T01:55:04.817Z,14.60
2018-05-08T01:57:38.575Z,14.60
2018-05-08T02:00:12.168Z,14.50
2018-05-08T02:02:46.697Z,14.50
2018-05-08T02:05:21.139Z,14.50
2018-05-08T02:07:55.652Z,14.60
2018-05-08T02:10:29.260Z,14.60
2018-05-08T02:13:03.101Z,14.70
2018-05-08T02:15:36.910Z,14.70
2018-05-08T02:18:10.760Z,14.70
2018-05-08T02:20:44.648Z,14.70
2018-05-08T02:23:19.202Z,14.70
2018-05-08T02:25:52.940Z,14.60
2018-05-08T02:28:26.645Z,14.60
2018-05-08T02:31:00.589Z,14.50
2018-05-08T02:33:34.244Z,14.50
2018-05-08T02:36:08.077Z,14.40
2018-05-08T02:38:41.815Z,14.40
2018-05-08T02:41:15.627Z,14.30
2018-05-08T02:43:49.258Z,14.20
2018-05-08T02:46:23.665Z,14.10
2018-05-08T02:48:57.477Z,14.10
2018-05-08T02:51:31.987Z,14.00
2018-05-08T02:54:05.729Z,14.00
2018-05-08T02:56:39.529Z,14.00
2018-05-08T02:59:13.225Z,14.10
2018-05-08T03:01:47.057Z,14.10
2018-05-08T03:04:20.753Z,14.10
2018-05-08T03:06:54.380Z,14.10
2018-05-08T03:09:29.594Z,14.20
2018-05-08T03:12:03.353Z,14.20
2018-05-08T03:14:38.115Z,14.30
2018-05-08T03:17:11.948Z,14.20
2018-05-08T03:19:45.692Z,14.30
2018-05-08T03:22:19.331Z,14.30
2018-05-08T03:24:53.164Z,14.10
2018-05-08T03:27:27.615Z,13.90
2018-05-08T03:30:01.400Z,13.90
2018-05-08T03:32:35.169Z,13.80
2018-05-08T03:35:09.048Z,13.70
2018-05-08T03:37:42.876Z,13.70
2018-05-08T03:40:16.609Z,13.70
2018-05-08T03:42:50.345Z,13.70
2018-05-08T03:45:23.976Z,13.70
2018-05-08T03:47:57.808Z,13.70
2018-05-08T03:50:31.625Z,13.70
2018-05-08T03:53:05.367Z,13.70
2018-05-08T03:55:39.241Z,13.70
2018-05-08T03:58:12.845Z,13.70
2018-05-08T04:00:58.634Z,13.70
2018-05-08T04:03:44.414Z,13.70
2018-05-08T04:06:30.041Z,13.70
2018-05-08T04:09:04.397Z,13.70
2018-05-08T04:11:38.407Z,13.70
2018-05-08T04:14:12.457Z,13.70
2018-05-08T04:16:46.188Z,13.80
2018-05-08T04:19:20.124Z,13.80
2018-05-08T04:21:54.091Z,13.80
2018-05-08T04:24:27.796Z,13.80
2018-05-08T04:27:02.377Z,13.80
2018-05-08T04:29:36.132Z,13.80
2018-05-08T04:32:09.892Z,13.90
2018-05-08T04:34:44.669Z,13.80
2018-05-08T04:37:18.504Z,13.80
2018-05-08T04:39:52.359Z,13.90
2018-05-08T04:42:26.130Z,13.80
2018-05-08T04:44:59.977Z,13.90
2018-05-08T04:47:34.518Z,14.00
2018-05-08T04:50:08.297Z,14.00
2018-05-08T04:52:41.880Z,14.10
2018-05-08T04:55:15.505Z,14.10
2018-05-08T04:57:49.988Z,14.30
2018-05-08T05:00:23.792Z,14.30
2018-05-08T05:02:57.598Z,14.30
2018-05-08T05:05:31.348Z,14.40
2018-05-08T05:08:05.188Z,14.40
2018-05-08T05:10:39.027Z,14.40
2018-05-08T05:13:12.736Z,14.50
2018-05-08T05:15:46.548Z,14.60
2018-05-08T05:18:20.292Z,14.60
2018-05-08T05:20:54.109Z,14.70
2018-05-08T05:23:28.115Z,14.70
2018-05-08T05:26:01.844Z,14.80
2018-05-08T05:28:35.727Z,14.90
2018-05-08T05:31:09.491Z,15.10
2018-05-08T05:33:43.326Z,15.40
2018-05-08T05:36:17.150Z,15.70
2018-05-08T05:38:50.975Z,15.80
2018-05-08T05:41:24.698Z,15.80
2018-05-08T05:43:58.632Z,15.90
2018-05-08T05:46:32.221Z,15.90
2018-05-08T05:49:06.057Z,15.90
2018-05-08T05:51:39.869Z,16.00
2018-05-08T05:54:13.800Z,16.00
2018-05-08T05:56:47.560Z,16.00
2018-05-08T05:59:21.356Z,16.00
2018-05-08T06:01:55.151Z,16.10
2018-05-08T06:04:29.769Z,16.30
2018-05-08T06:07:03.508Z,16.30
2018-05-08T06:09:37.264Z,16.40
2018-05-08T06:12:11.065Z,16.40
2018-05-08T06:14:44.708Z,16.50
2018-05-08T06:17:20.319Z,16.70
2018-05-08T06:19:54.065Z,16.70
2018-05-08T06:22:28.668Z,16.80
2018-05-08T06:25:02.835Z,16.80
2018-05-08T06:27:36.479Z,17.00
2018-05-08T06:30:10.970Z,17.20
2018-05-08T06:32:44.741Z,17.20
2018-05-08T06:35:18.545Z,17.20
2018-05-08T06:37:53.415Z,17.30
2018-05-08T06:40:27.349Z,17.40
2018-05-08T06:43:01.129Z,17.50
2018-05-08T06:45:34.824Z,17.60
2018-05-08T06:48:12.400Z,17.80
2018-05-08T06:50:46.355Z,17.90
2018-05-08T06:53:20.208Z,18.00
2018-05-08T06:55:54.034Z,18.10
2018-05-08T06:58:29.096Z,18.30
2018-05-08T07:01:03.552Z,18.40
2018-05-08T07:03:37.376Z,18.30
2018-05-08T07:06:10.948Z,18.40
2018-05-08T07:08:44.628Z,18.50
2018-05-08T07:11:18.477Z,18.50
2018-05-08T07:13:52.333Z,18.50
2018-05-08T07:16:26.684Z,18.70
2018-05-08T07:19:03.488Z,18.80
2018-05-08T07:21:37.350Z,18.70
2018-05-08T07:24:11.221Z,18.80
2018-05-08T07:26:45.926Z,19.00
2018-05-08T07:29:19.828Z,19.00
2018-05-08T07:31:53.747Z,19.10
2018-05-08T07:34:27.408Z,19.10
2018-05-08T07:37:01.156Z,19.20
2018-05-08T07:39:34.976Z,19.40
2018-05-08T07:42:08.704Z,19.70
2018-05-08T07:44:43.239Z,19.90
2018-05-08T07:47:17.073Z,20.00
2018-05-08T07:49:51.890Z,20.10
2018-05-08T07:52:25.701Z,20.10
2018-05-08T07:54:59.360Z,20.20
2018-05-08T07:57:33.152Z,20.20
2018-05-08T08:00:06.786Z,20.30
2018-05-08T08:02:40.473Z,20.30
2018-05-08T08:05:14.200Z,20.40
2018-05-08T08:07:47.956Z,20.60
2018-05-08T08:10:21.776Z,20.70
2018-05-08T08:12:56.328Z,21.20
2018-05-08T08:15:30.152Z,21.20
2018-05-08T08:18:04.439Z,21.60
2018-05-08T08:20:39.669Z,22.10
2018-05-08T08:23:13.614Z,22.70
2018-05-08T08:25:48.933Z,24.10
2018-05-08T08:28:22.795Z,24.00
2018-05-08T08:30:57.181Z,24.30
2018-05-08T08:33:31.817Z,25.30
2018-05-08T08:36:05.613Z,25.30
2018-05-08T08:38:39.222Z,25.40
2018-05-08T08:41:13.177Z,25.50
2018-05-08T08:43:48.019Z,26.20
2018-05-08T08:46:21.659Z,26.20
2018-05-08T08:48:56.803Z,26.00
2018-05-08T08:51:30.499Z,25.80
2018-05-08T08:54:04.367Z,26.20
2018-05-08T08:56:38.166Z,26.60
2018-05-08T08:59:13.179Z,27.00
2018-05-08T09:01:46.933Z,27.20
2018-05-08T09:04:20.762Z,27.30
2018-05-08T09:06:58.869Z,27.50
2018-05-08T09:09:32.648Z,27.70
2018-05-08T09:12:07.156Z,27.70
2018-05-08T09:14:41.081Z,27.60
2018-05-08T09:17:15.155Z,27.80
2018-05-08T09:19:49.310Z,27.70
2018-05-08T09:22:23.740Z,28.00
2018-05-08T09:24:57.413Z,28.20
2018-05-08T09:27:31.133Z,28.20
2018-05-08T09:30:05.045Z,28.40
2018-05-08T09:32:39.539Z,28.30
2018-05-08T09:35:13.767Z,28.30
2018-05-08T09:37:47.716Z,28.10
2018-05-08T09:40:21.337Z,28.00
2018-05-08T09:42:55.079Z,28.10
2018-05-08T09:45:29.533Z,28.10
2018-05-08T09:48:03.240Z,28.10
2018-05-08T09:50:37.147Z,28.40
2018-05-08T09:53:10.824Z,28.60
2018-05-08T09:55:44.492Z,28.70
2018-05-08T09:58:18.338Z,28.50
2018-05-08T10:00:52.128Z,28.70
2018-05-08T10:03:25.781Z,28.90
2018-05-08T10:05:59.509Z,29.00
2018-05-08T10:08:33.168Z,29.50
2018-05-08T10:11:06.791Z,29.50
2018-05-08T10:13:40.606Z,29.10
2018-05-08T10:16:14.685Z,29.00
2018-05-08T10:18:48.488Z,29.40
2018-05-08T10:21:22.155Z,29.30
2018-05-08T10:23:55.867Z,29.20
2018-05-08T10:26:29.616Z,28.80
2018-05-08T10:29:03.432Z,28.90
2018-05-08T10:31:37.145Z,28.50
2018-05-08T10:34:11.061Z,28.60
2018-05-08T10:36:44.973Z,29.10
2018-05-08T10:39:18.892Z,29.70
2018-05-08T10:41:52.577Z,29.10
2018-05-08T10:44:26.393Z,28.00
2018-05-08T10:47:04.567Z,28.50
2018-05-08T10:49:38.219Z,28.70
2018-05-08T10:52:13.458Z,28.90
2018-05-08T10:54:50.797Z,28.90
2018-05-08T10:57:27.641Z,29.10
2018-05-08T11:00:01.438Z,29.60
2018-05-08T11:02:35.450Z,29.60
2018-05-08T11:05:09.149Z,29.60
2018-05-08T11:07:43.361Z,29.40
2018-05-08T11:10:17.199Z,28.80
2018-05-08T11:12:50.977Z,28.70
2018-05-08T11:15:24.707Z,28.60
2018-05-08T11:17:59.165Z,28.90
2018-05-08T11:20:33.021Z,28.90
2018-05-08T11:23:08.066Z,29.00
2018-05-08T11:25:41.952Z,29.40
2018-05-08T11:28:15.764Z,29.80
2018-05-08T11:30:50.148Z,29.60
2018-05-08T11:33:24.178Z,29.60
2018-05-08T11:35:57.881Z,29.50
2018-05-08T11:38:32.410Z,28.90
2018-05-08T11:41:06.465Z,28.90
2018-05-08T11:43:40.954Z,28.10
2018-05-08T11:46:14.809Z,28.00
2018-05-08T11:48:49.356Z,27.50
2018-05-08T11:51:23.126Z,27.50
2018-05-08T11:53:56.860Z,27.40
2018-05-08T11:56:30.643Z,27.40
2018-05-08T11:59:04.557Z,27.20
2018-05-08T12:01:39.123Z,27.00
2018-05-08T12:04:13.737Z,26.90
2018-05-08T12:06:47.621Z,26.90
2018-05-08T12:09:21.333Z,27.00
2018-05-08T12:11:55.185Z,27.10
2018-05-08T12:14:29.089Z,27.10
2018-05-08T12:17:02.809Z,27.00
2018-05-08T12:19:36.669Z,26.90
2018-05-08T12:22:11.006Z,26.80
2018-05-08T12:24:45.101Z,26.70
2018-05-08T12:27:18.797Z,26.80
2018-05-08T12:29:52.541Z,26.60
2018-05-08T12:32:26.371Z,26.80
2018-05-08T12:35:00.848Z,26.70
2018-05-08T12:37:34.627Z,26.60
2018-05-08T12:40:09.176Z,26.90
2018-05-08T12:42:42.829Z,26.80
2018-05-08T12:45:16.704Z,26.80
2018-05-08T12:47:50.520Z,26.80
2018-05-08T12:50:24.295Z,26.90
2018-05-08T12:52:58.816Z,26.70
2018-05-08T12:55:32.590Z,26.70
2018-05-08T12:58:07.167Z,26.60
2018-05-08T13:00:41.609Z,26.60
2018-05-08T13:03:16.274Z,26.60
2018-05-08T13:05:49.916Z,26.60
2018-05-08T13:08:23.575Z,26.60
2018-05-08T13:10:57.432Z,26.60
2018-05-08T13:13:31.021Z,26.70
2018-05-08T13:16:04.699Z,26.60
2018-05-08T13:18:39.471Z,26.70
2018-05-08T13:21:13.297Z,26.80
2018-05-08T13:23:47.120Z,26.80
2018-05-08T13:26:20.961Z,26.80
2018-05-08T13:28:54.789Z,26.90
2018-05-08T13:31:28.562Z,26.90
2018-05-08T13:34:02.352Z,26.70
2018-05-08T13:36:36.376Z,26.60
2018-05-08T13:39:10.872Z,26.70
2018-05-08T13:41:44.618Z,26.70
2018-05-08T13:44:19.093Z,26.60
2018-05-08T13:46:52.945Z,26.60
2018-05-08T13:49:27.486Z,26.70
2018-05-08T13:52:02.086Z,26.60
2018-05-08T13:54:35.705Z,26.60
2018-05-08T13:57:09.588Z,26.60
2018-05-08T13:59:43.302Z,26.60
2018-05-08T14:02:17.128Z,26.60
2018-05-08T14:04:50.898Z,26.70
2018-05-08T14:07:24.704Z,26.90
2018-05-08T14:09:59.243Z,26.70
2018-05-08T14:12:32.858Z,26.70
2018-05-08T14:15:07.434Z,26.70
2018-05-08T14:17:41.189Z,26.70
2018-05-08T14:20:14.874Z,26.60
2018-05-08T14:22:48.736Z,26.60
2018-05-08T14:25:23.182Z,26.80
2018-05-08T14:27:57.731Z,26.70
2018-05-08T14:30:31.562Z,26.60
2018-05-08T14:33:05.359Z,26.70
2018-05-08T14:35:39.238Z,26.60
2018-05-08T14:38:12.960Z,26.70
2018-05-08T14:40:46.549Z,26.70
2018-05-08T14:43:20.386Z,26.70
2018-05-08T14:45:54.169Z,26.60
2018-05-08T14:48:27.901Z,26.60
2018-05-08T14:51:01.661Z,26.60
2018-05-08T14:53:35.383Z,26.80
2018-05-08T14:56:09.236Z,26.80
2018-05-08T14:58:43.028Z,26.80
2018-05-08T15:01:16.683Z,26.80
2018-05-08T15:03:50.850Z,26.80
2018-05-08T15:06:24.666Z,26.80
2018-05-08T15:08:58.411Z,26.70
2018-05-08T15:11:32.258Z,26.70
2018-05-08T15:14:06.178Z,26.70
2018-05-08T15:16:39.845Z,26.70
2018-05-08T15:19:13.672Z,26.70
2018-05-08T15:21:47.517Z,26.70
2018-05-08T15:24:21.410Z,26.70
2018-05-08T15:26:56.825Z,26.60
2018-05-08T15:29:30.809Z,26.60
2018-05-08T15:32:04.615Z,26.70
2018-05-08T15:34:38.448Z,26.70
2018-05-08T15:37:12.391Z,26.60
2018-05-08T15:39:47.083Z,26.50
2018-05-08T15:42:20.874Z,26.40
2018-05-08T15:44:54.589Z,26.30
2018-05-08T15:47:28.397Z,26.30
2018-05-08T15:50:02.176Z,26.40
2018-05-08T15:52:35.945Z,26.40
2018-05-08T15:55:09.916Z,26.40
2018-05-08T15:57:43.648Z,26.30
2018-05-08T16:00:17.323Z,26.30
2018-05-08T16:02:50.917Z,26.30
2018-05-08T16:05:24.670Z,26.30
2018-05-08T16:07:58.809Z,26.30
2018-05-08T16:10:32.381Z,26.30
2018-05-08T16:13:06.277Z,26.30
2018-05-08T16:15:40.098Z,26.30
2018-05-08T16:18:13.857Z,26.30
2018-05-08T16:20:47.874Z,26.20
2018-05-08T16:23:22.255Z,26.20
2018-05-08T16:25:56.115Z,26.20
2018-05-08T16:28:30.612Z,26.10
2018-05-08T16:31:04.389Z,26.10
2018-05-08T16:33:38.983Z,26.00
2018-05-08T16:36:12.800Z,25.90
2018-05-08T16:38:46.541Z,26.00
2018-05-08T16:41:20.376Z,26.00
2018-05-08T16:43:54.187Z,26.00
2018-05-08T16:46:28.665Z,25.80
2018-05-08T16:49:02.490Z,25.80
2018-05-08T16:51:36.351Z,25.70
2018-05-08T16:54:10.825Z,25.60
2018-05-08T16:56:44.658Z,25.60
2018-05-08T16:59:19.423Z,25.60
2018-05-08T17:01:53.985Z,25.70
2018-05-08T17:04:27.846Z,25.70
2018-05-08T17:07:01.601Z,25.60
2018-05-08T17:09:35.427Z,25.60
2018-05-08T17:12:09.192Z,25.60
2018-05-08T17:14:43.078Z,25.60
2018-05-08T17:17:16.829Z,25.60
2018-05-08T17:19:50.649Z,25.60
2018-05-08T17:22:25.125Z,25.60
2018-05-08T17:24:59.036Z,25.60
2018-05-08T17:27:32.787Z,25.50
2018-05-08T17:30:07.369Z,25.30
2018-05-08T17:32:42.045Z,25.30
2018-05-08T17:35:15.865Z,25.30
2018-05-08T17:37:49.650Z,25.30
2018-05-08T17:40:23.401Z,25.30
2018-05-08T17:42:57.257Z,25.20
2018-05-08T17:45:31.729Z,25.10
2018-05-08T17:48:06.540Z,25.00
2018-05-08T17:50:40.230Z,25.00
2018-05-08T17:53:14.628Z,25.00
2018-05-08T17:55:48.323Z,24.90
2018-05-08T17:58:22.163Z,25.00
2018-05-08T18:00:55.875Z,24.80
2018-05-08T18:03:29.762Z,24.70
2018-05-08T18:06:03.689Z,24.60
2018-05-08T18:08:38.178Z,24.50
2018-05-08T18:11:11.993Z,24.40
2018-05-08T18:13:45.660Z,24.40
2018-05-08T18:16:19.459Z,24.40
2018-05-08T18:18:53.113Z,24.30
2018-05-08T18:21:26.896Z,24.20
2018-05-08T18:24:01.312Z,24.10
2018-05-08T18:26:35.039Z,24.10
2018-05-08T18:29:08.733Z,24.00
2018-05-08T18:31:42.388Z,24.00
2018-05-08T18:34:16.984Z,23.80
2018-05-08T18:36:50.846Z,23.80
2018-05-08T18:39:24.674Z,23.80
2018-05-08T18:41:59.261Z,23.60
2018-05-08T18:44:33.022Z,23.50
2018-05-08T18:47:08.666Z,23.30
2018-05-08T18:49:42.431Z,23.30
2018-05-08T18:52:16.180Z,23.20
2018-05-08T18:54:49.933Z,23.10
2018-05-08T18:57:25.186Z,23.00
2018-05-08T19:00:04.625Z,23.00
2018-05-08T19:02:38.369Z,22.90
2018-05-08T19:05:12.273Z,22.80
2018-05-08T19:07:46.031Z,22.70
2018-05-08T19:10:19.887Z,22.60
2018-05-08T19:12:53.705Z,22.60
2018-05-08T19:15:33.924Z,22.50
2018-05-08T19:18:07.792Z,22.50
2018-05-08T19:20:41.540Z,22.40
2018-05-08T19:23:16.066Z,22.30
2018-05-08T19:25:49.756Z,22.30
2018-05-08T19:28:29.404Z,22.30
2018-05-08T19:31:03.297Z,22.20
2018-05-08T19:33:37.832Z,22.10
2018-05-08T19:36:18.241Z,22.00
2018-05-08T19:38:51.942Z,22.00
2018-05-08T19:41:26.316Z,21.90
2018-05-08T19:44:00.137Z,21.90
2018-05-08T19:46:33.883Z,21.80
2018-05-08T19:49:07.758Z,21.70
2018-05-08T19:51:41.481Z,21.50
2018-05-08T19:54:15.308Z,21.40
2018-05-08T19:56:49.356Z,21.30
2018-05-08T19:59:22.965Z,21.20
2018-05-08T20:01:56.698Z,21.20
2018-05-08T20:04:31.273Z,21.10
2018-05-08T20:07:05.153Z,21.10
2018-05-08T20:09:39.689Z,21.10
2018-05-08T20:12:14.342Z,21.10
2018-05-08T20:14:48.189Z,21.10
2018-05-08T20:17:22.749Z,20.90
2018-05-08T20:19:57.281Z,20.80
2018-05-08T20:22:31.908Z,20.80
2018-05-08T20:25:05.577Z,20.70
2018-05-08T20:27:39.384Z,20.70
2018-05-08T20:30:13.254Z,20.70
2018-05-08T20:32:47.065Z,20.70
2018-05-08T20:35:21.593Z,20.70
2018-05-08T20:37:55.364Z,20.70
2018-05-08T20:40:35.910Z,20.60
2018-05-08T20:43:10.495Z,20.50
2018-05-08T20:45:45.108Z,20.40
2018-05-08T20:48:19.601Z,20.30
2018-05-08T20:50:53.364Z,20.20
2018-05-08T20:53:27.110Z,20.20
2018-05-08T20:56:02.469Z,20.10
2018-05-08T20:58:37.092Z,20.00
2018-05-08T21:01:11.610Z,20.00
2018-05-08T21:03:45.508Z,19.90
2018-05-08T21:06:19.997Z,19.80
2018-05-08T21:08:53.786Z,19.80
2018-05-08T21:11:27.603Z,19.80
2018-05-08T21:14:01.283Z,19.70
2018-05-08T21:16:34.963Z,19.60
2018-05-08T21:19:08.720Z,19.60
2018-05-08T21:21:42.348Z,19.50
2018-05-08T21:24:16.749Z,19.50
2018-05-08T21:26:50.410Z,19.40
2018-05-08T21:29:30.036Z,19.50
2018-05-08T21:32:03.801Z,19.40
2018-05-08T21:34:37.681Z,19.40
2018-05-08T21:37:11.456Z,19.30
2018-05-08T21:39:45.233Z,19.30
2018-05-08T21:42:19.665Z,19.20
2018-05-08T21:44:53.375Z,19.20
2018-05-08T21:47:27.168Z,19.10
2018-05-08T21:50:01.004Z,19.10
2018-05-08T21:52:34.736Z,19.10
2018-05-08T21:55:08.599Z,19.00
2018-05-08T21:57:42.247Z,18.90
2018-05-08T22:00:15.953Z,18.90
2018-05-08T22:02:49.748Z,18.80
2018-05-08T22:05:24.227Z,18.70
2018-05-08T22:07:58.096Z,18.70
2018-05-08T22:10:32.656Z,18.50
2018-05-08T22:13:06.471Z,18.50
2018-05-08T22:15:40.097Z,18.50
2018-05-08T22:18:13.796Z,18.50
2018-05-08T22:20:47.487Z,18.40
2018-05-08T22:23:21.288Z,18.40
2018-05-08T22:25:55.096Z,18.40
2018-05-08T22:28:28.812Z,18.40
2018-05-08T22:31:03.518Z,18.30
2018-05-08T22:33:38.096Z,18.20
2018-05-08T22:36:11.932Z,18.20
2018-05-08T22:38:45.695Z,18.20
2018-05-08T22:41:19.408Z,18.20
2018-05-08T22:43:53.216Z,18.30
2018-05-08T22:46:26.972Z,18.30
2018-05-08T22:49:01.505Z,18.30
2018-05-08T22:51:35.125Z,18.30
2018-05-08T22:54:08.925Z,18.30
2018-05-08T22:56:43.324Z,18.30
2018-05-08T22:59:17.848Z,18.20
2018-05-08T23:01:51.514Z,18.20
2018-05-08T23:04:25.389Z,18.10
2018-05-08T23:06:59.736Z,18.00
2018-05-08T23:09:33.374Z,18.00
2018-05-08T23:12:07.008Z,18.00
2018-05-08T23:14:41.688Z,18.00
2018-05-08T23:17:16.085Z,18.00
2018-05-08T23:19:49.712Z,17.90
2018-05-08T23:22:23.461Z,17.80
2018-05-08T23:24:57.244Z,17.60
2018-05-08T23:27:31.737Z,17.50
2018-05-08T23:30:05.375Z,17.50
2018-05-08T23:32:39.183Z,17.50
2018-05-08T23:35:13.696Z,17.40
2018-05-08T23:37:47.372Z,17.40
2018-05-08T23:40:21.923Z,17.30
2018-05-08T23:42:55.477Z,17.30
2018-05-08T23:45:29.163Z,17.30
2018-05-08T23:48:04.290Z,17.30
2018-05-08T23:50:38.132Z,17.30
2018-05-08T23:53:12.573Z,17.10
2018-05-08T23:55:46.913Z,17.00
2018-05-08T23:58:21.320Z,17.00
